Time;durP1;ratioP1;P1;durP2;ratioP2;P2;SDS_P1;SDS_P2;PMS_P1;PMS_P2;Temp;Humidity;BMP_temperature;BMP_pressure;BME280_temperature;BME280_humidity;BME280_pressure;Samples;Min_cycle;Max_cycle;Signal;HPM_P1;HPM_P2
2023/04/28 00:00:26;;;;;;;12.57;6.63;;;;;;;9.82;69.66;101152.31;5096311;28;20443;-82
2023/04/28 00:02:52;;;;;;;12.32;6.57;;;;;;;9.82;71.30;101152.31;5096179;28;20487;-82
2023/04/28 00:05:18;;;;;;;15.68;7.20;;;;;;;9.80;69.58;101154.41;5097242;28;20123;-82
2023/04/28 00:07:44;;;;;;;13.27;7.38;;;;;;;9.79;71.11;101155.41;5079715;28;20035;-82
2023/04/28 00:10:10;;;;;;;13.17;7.50;;;;;;;9.77;70.21;101153.94;5079975;28;20482;-82
2023/04/28 00:12:35;;;;;;;10.80;6.70;;;;;;;9.74;68.95;101148.94;5096269;28;20391;-82
2023/04/28 00:15:01;;;;;;;11.20;6.57;;;;;;;9.73;70.54;101142.69;5079305;28;20301;-82
2023/04/28 00:17:26;;;;;;;11.70;6.67;;;;;;;9.73;70.77;101144.53;5096625;28;20031;-82
2023/04/28 00:19:51;;;;;;;12.00;7.13;;;;;;;9.70;71.84;101131.41;5062908;28;20433;-82
2023/04/28 00:22:18;;;;;;;13.97;7.10;;;;;;;9.68;73.56;101128.06;5079472;28;20467;-82
2023/04/28 00:24:43;;;;;;;14.45;7.60;;;;;;;9.62;75.01;101125.13;5113984;28;20255;-82
2023/04/28 00:27:09;;;;;;;13.90;8.35;;;;;;;9.58;74.03;101134.72;5079336;28;20035;-82
2023/04/28 00:29:35;;;;;;;13.73;7.68;;;;;;;9.57;78.05;101135.75;5096210;28;20387;-82
2023/04/28 00:32:01;;;;;;;12.83;6.97;;;;;;;9.54;75.59;101125.31;5096138;28;20032;-82
2023/04/28 00:34:28;;;;;;;15.68;7.72;;;;;;;9.50;78.16;101115.91;5114071;28;20468;-82
2023/04/28 00:36:54;;;;;;;14.80;8.13;;;;;;;9.45;79.52;101102.16;5096034;28;20180;-82
2023/04/28 00:39:21;;;;;;;14.60;7.97;;;;;;;9.43;79.79;101102.34;5062806;28;20099;-82
2023/04/28 00:41:50;;;;;;;14.32;7.88;;;;;;;9.38;81.87;101085.88;5095876;28;20031;-82
2023/04/28 00:44:18;;;;;;;17.92;8.68;;;;;;;9.33;80.92;101088.34;5095751;28;20345;-82
2023/04/28 00:46:46;;;;;;;13.17;8.80;;;;;;;9.30;83.16;101086.88;5096075;28;20177;-82
2023/04/28 00:49:14;;;;;;;17.13;9.02;;;;;;;9.23;83.56;101096.00;5095846;28;20036;-82
2023/04/28 00:51:39;;;;;;;12.95;8.95;;;;;;;9.16;84.70;101087.00;5095892;28;20036;-82
2023/04/28 00:54:12;;;;;;;14.27;9.23;;;;;;;9.15;84.56;101069.91;5096004;28;20035;-82
2023/04/28 00:56:37;;;;;;;15.88;8.70;;;;;;;9.09;83.24;101065.31;5095701;28;20471;-83
2023/04/28 00:59:03;;;;;;;13.52;8.18;;;;;;;9.03;85.77;101060.69;5096218;28;20122;-82
2023/04/28 01:01:28;;;;;;;17.35;8.43;;;;;;;8.97;85.49;101062.31;5096396;28;20030;-82
2023/04/28 01:03:54;;;;;;;13.60;8.30;;;;;;;8.94;85.91;101066.25;5113846;28;20031;-83
2023/04/28 01:06:20;;;;;;;16.13;8.93;;;;;;;8.91;86.87;101068.53;5062419;28;20031;-82
2023/04/28 01:08:49;;;;;;;15.85;9.00;;;;;;;8.84;86.10;101082.00;5095848;28;20390;-82
2023/04/28 01:11:15;;;;;;;14.68;8.20;;;;;;;8.82;85.37;101077.84;5095835;28;20050;-82
2023/04/28 01:13:40;;;;;;;16.90;8.87;;;;;;;8.75;85.45;101075.94;5078342;28;20506;-82
2023/04/28 01:16:06;;;;;;;14.23;8.47;;;;;;;8.75;88.89;101073.25;5079288;28;20548;-82
2023/04/28 01:18:32;;;;;;;15.65;8.48;;;;;;;8.75;87.51;101057.00;5096047;28;20283;-82
2023/04/28 01:20:57;;;;;;;16.88;9.18;;;;;;;8.76;88.89;101044.31;5096382;28;20031;-82
2023/04/28 01:23:23;;;;;;;13.97;8.00;;;;;;;8.75;87.48;101039.94;5095576;28;20118;-82
2023/04/28 01:25:48;;;;;;;14.93;8.90;;;;;;;8.74;89.26;101035.53;5095583;28;20066;-81
2023/04/28 01:28:13;;;;;;;17.47;8.87;;;;;;;8.68;89.58;101042.59;5095892;28;20368;-82
2023/04/28 01:30:39;;;;;;;15.13;8.63;;;;;;;8.66;89.81;101043.81;5078702;28;20035;-81
2023/04/28 01:33:04;;;;;;;15.40;8.63;;;;;;;8.66;90.53;101041.13;5095369;28;20067;-81
2023/04/28 01:35:30;;;;;;;16.27;8.57;;;;;;;8.65;89.43;101044.84;5113455;28;20038;-81
2023/04/28 01:37:55;;;;;;;17.70;9.13;;;;;;;8.65;91.59;101036.75;5062044;28;20118;-81
2023/04/28 01:40:20;;;;;;;15.87;9.20;;;;;;;8.64;91.11;101029.69;5095016;28;20078;-82
2023/04/28 01:42:46;;;;;;;15.43;9.57;;;;;;;8.67;92.29;101027.41;5079389;28;20066;-81
2023/04/28 01:45:11;;;;;;;16.47;9.10;;;;;;;8.65;89.71;101023.22;5095154;28;20062;-82
2023/04/28 01:47:37;;;;;;;15.60;8.73;;;;;;;8.66;89.85;101033.00;5081040;28;20277;-81
2023/04/28 01:50:03;;;;;;;15.03;9.57;;;;;;;8.69;90.56;101027.19;5099084;28;20024;-81
2023/04/28 01:52:29;;;;;;;13.07;8.93;;;;;;;8.68;89.99;101020.09;5117304;28;20266;-82
2023/04/28 01:54:54;;;;;;;15.35;9.45;;;;;;;8.69;92.49;101019.09;5099179;28;20020;-81
2023/04/28 01:57:20;;;;;;;16.38;9.65;;;;;;;8.70;92.60;101010.78;5082150;28;20459;-82
2023/04/28 01:59:45;;;;;;;16.87;9.33;;;;;;;8.70;92.46;101018.88;5116923;28;20475;-81
2023/04/28 02:02:11;;;;;;;17.30;9.52;;;;;;;8.71;92.37;101011.59;5098776;28;20016;-82
2023/04/28 02:04:37;;;;;;;17.90;9.17;;;;;;;8.72;92.52;101019.50;5116916;28;20044;-81
2023/04/28 02:07:03;;;;;;;20.55;10.40;;;;;;;8.71;92.53;101023.28;5098969;28;20024;-82
2023/04/28 02:09:28;;;;;;;16.23;9.17;;;;;;;8.73;91.32;101026.59;5098858;28;20448;-81
2023/04/28 02:11:54;;;;;;;18.50;10.03;;;;;;;8.72;92.21;101021.38;5081698;28;20082;-81
2023/04/28 02:14:19;;;;;;;16.45;9.15;;;;;;;8.74;91.55;101020.16;5064826;28;20030;-82
2023/04/28 02:16:45;;;;;;;17.27;10.63;;;;;;;8.74;92.58;101012.03;5081233;28;20059;-82
2023/04/28 02:19:10;;;;;;;17.17;9.50;;;;;;;8.76;91.43;101003.72;5082315;28;20482;-81
2023/04/28 02:21:35;;;;;;;17.63;9.73;;;;;;;8.78;92.96;100998.94;5098982;28;20054;-81
2023/04/28 02:24:01;;;;;;;18.13;10.00;;;;;;;8.79;91.46;101003.31;5082009;28;20038;-81
2023/04/28 02:26:26;;;;;;;16.57;9.50;;;;;;;8.78;90.25;100994.38;5081491;28;20057;-82
2023/04/28 02:28:52;;;;;;;15.10;9.85;;;;;;;8.80;90.20;100993.31;5098476;28;20394;-80
2023/04/28 02:31:17;;;;;;;15.87;9.53;;;;;;;8.81;89.01;100982.31;5116574;28;20382;-81
2023/04/28 02:33:43;;;;;;;16.10;9.83;;;;;;;8.82;89.23;100967.75;5064695;28;20028;-82
2023/04/28 02:36:09;;;;;;;15.73;10.20;;;;;;;8.83;89.40;100957.75;5098696;28;20100;-81
2023/04/28 02:38:35;;;;;;;15.60;9.23;;;;;;;8.84;89.66;100943.19;5081819;28;20059;-81
2023/04/28 02:41:04;;;;;;;20.35;9.70;;;;;;;8.78;90.00;100932.16;5116613;28;20066;-81
2023/04/28 02:43:31;;;;;;;17.77;9.45;;;;;;;8.74;89.77;100921.91;5116223;28;20031;-81
2023/04/28 02:45:56;;;;;;;15.85;9.27;;;;;;;8.73;91.04;100921.09;5116265;28;20034;-81
2023/04/28 02:48:23;;;;;;;19.45;10.63;;;;;;;8.69;90.73;100913.59;5115966;28;20114;-82
2023/04/28 02:50:49;;;;;;;16.60;9.70;;;;;;;8.67;90.68;100904.84;5081540;28;20111;-82
2023/04/28 02:53:15;;;;;;;19.95;10.20;;;;;;;8.68;91.84;100907.34;5097640;28;20106;-81
2023/04/28 02:55:41;;;;;;;17.98;10.25;;;;;;;8.67;93.17;100924.63;5115788;28;20510;-81
2023/04/28 02:58:06;;;;;;;18.60;10.97;;;;;;;8.69;93.45;100927.13;5096998;28;20118;-81
2023/04/28 03:00:31;;;;;;;22.13;10.77;;;;;;;8.74;92.29;100927.31;5098324;28;20414;-81
2023/04/28 03:02:57;;;;;;;19.80;10.27;;;;;;;8.76;91.04;100926.09;5115823;28;20027;-82
2023/04/28 03:05:22;;;;;;;17.73;10.68;;;;;;;8.77;90.93;100930.47;5097804;28;20074;-81
2023/04/28 03:07:48;;;;;;;16.33;9.60;;;;;;;8.79;91.92;100924.88;5115596;28;20049;-81
2023/04/28 03:10:13;;;;;;;22.33;10.87;;;;;;;8.80;91.75;100926.53;5097937;28;20370;-82
2023/04/28 03:12:38;;;;;;;15.93;10.27;;;;;;;8.83;91.25;100911.75;5080917;28;20024;-81
2023/04/28 03:15:07;;;;;;;21.05;10.80;;;;;;;8.86;93.04;100917.63;5080731;28;20059;-81
2023/04/28 03:17:32;;;;;;;18.37;10.67;;;;;;;8.90;92.37;100918.88;5115981;28;20053;-82
2023/04/28 03:19:58;;;;;;;17.65;9.82;;;;;;;8.90;92.45;100926.16;5080831;28;20098;-81
2023/04/28 03:22:23;;;;;;;19.83;10.37;;;;;;;8.93;92.28;100923.03;5097946;28;20031;-81
2023/04/28 03:24:49;;;;;;;18.47;9.83;;;;;;;8.97;92.07;100923.47;5097704;28;20028;-81
2023/04/28 03:27:14;;;;;;;18.63;10.77;;;;;;;8.96;90.98;100928.03;5096991;28;20473;-81
2023/04/28 03:29:39;;;;;;;17.65;10.40;;;;;;;8.99;90.36;100932.22;5080250;28;20379;-81
2023/04/28 03:32:05;;;;;;;17.25;10.55;;;;;;;9.02;90.79;100926.41;5079893;28;20444;-81
2023/04/28 03:34:30;;;;;;;18.20;10.67;;;;;;;9.03;91.09;100926.19;5080696;28;20039;-81
2023/04/28 03:36:56;;;;;;;18.90;10.97;;;;;;;9.04;91.52;100921.63;5097676;28;20051;-81
2023/04/28 03:39:21;;;;;;;18.73;10.33;;;;;;;9.06;91.91;100908.72;5097619;28;20038;-81
2023/04/28 03:41:47;;;;;;;18.25;9.77;;;;;;;9.07;91.14;100911.22;5114793;28;20629;-81
2023/04/28 03:44:12;;;;;;;22.63;11.63;;;;;;;9.10;93.37;100904.56;5080396;28;20028;-81
2023/04/28 03:46:39;;;;;;;17.77;10.73;;;;;;;9.11;91.41;100908.97;5079959;28;20119;-81
2023/04/28 03:49:05;;;;;;;20.95;11.60;;;;;;;9.12;92.34;100906.06;5115339;28;20052;-81
2023/04/28 03:51:31;;;;;;;25.57;10.93;;;;;;;9.16;92.70;100905.63;5063268;28;20124;-81
2023/04/28 03:53:57;;;;;;;17.58;10.60;;;;;;;9.17;92.24;100901.88;5080283;28;20331;-81
2023/04/28 03:56:23;;;;;;;18.25;10.90;;;;;;;9.19;93.87;100897.09;5096653;28;20031;-81
2023/04/28 03:58:48;;;;;;;18.43;11.33;;;;;;;9.23;93.02;100887.53;5096744;28;20110;-81
2023/04/28 04:01:14;;;;;;;20.38;11.05;;;;;;;9.26;92.99;100884.41;5079629;28;20126;-81
2023/04/28 04:03:39;;;;;;;18.35;11.15;;;;;;;9.27;93.08;100881.50;5079609;28;20059;-81
2023/04/28 04:06:05;;;;;;;20.17;11.43;;;;;;;9.32;93.11;100889.00;5080197;28;20027;-82
2023/04/28 04:08:32;;;;;;;18.20;10.52;;;;;;;9.32;93.13;100891.72;5079487;28;20031;-81
2023/04/28 04:10:57;;;;;;;19.52;10.93;;;;;;;9.31;92.55;100890.03;5096253;28;20020;-81
2023/04/28 04:13:23;;;;;;;16.83;10.43;;;;;;;9.30;92.75;100878.38;5114550;28;20031;-81
2023/04/28 04:15:49;;;;;;;17.60;11.33;;;;;;;9.35;93.41;100885.88;5079120;28;20051;-81
2023/04/28 04:18:14;;;;;;;19.77;11.32;;;;;;;9.37;93.26;100886.50;5079542;28;20031;-81
2023/04/28 04:20:40;;;;;;;18.70;10.90;;;;;;;9.37;93.91;100894.63;5096528;28;20027;-81
2023/04/28 04:23:05;;;;;;;23.90;11.52;;;;;;;9.39;93.51;100889.00;5096148;28;20296;-82
2023/04/28 04:25:31;;;;;;;18.73;10.60;;;;;;;9.39;93.06;100892.56;5114368;28;20036;-81
2023/04/28 04:27:57;;;;;;;18.50;10.83;;;;;;;9.43;92.78;100895.69;5096661;28;20118;-81
2023/04/28 04:30:23;;;;;;;20.60;11.27;;;;;;;9.42;93.06;100880.47;5080188;28;20471;-81
2023/04/28 04:32:48;;;;;;;20.30;10.97;;;;;;;9.44;92.67;100883.81;5079584;28;20028;-81
2023/04/28 04:35:14;;;;;;;19.17;10.83;;;;;;;9.44;92.32;100884.63;5078873;28;20081;-81
2023/04/28 04:37:39;;;;;;;16.73;10.15;;;;;;;9.44;92.27;100873.81;5079697;28;20266;-81
2023/04/28 04:40:05;;;;;;;20.63;11.43;;;;;;;9.45;93.30;100867.34;5079645;28;20085;-81
2023/04/28 04:42:31;;;;;;;17.73;10.93;;;;;;;9.46;94.14;100860.91;5079069;28;20475;-81
2023/04/28 04:44:56;;;;;;;20.80;11.60;;;;;;;9.48;93.78;100860.69;5114162;28;20032;-81
2023/04/28 04:47:22;;;;;;;19.17;10.80;;;;;;;9.50;93.86;100845.06;5078806;28;20471;-81
2023/04/28 04:49:49;;;;;;;18.65;11.20;;;;;;;9.54;94.61;100849.03;5079910;28;20027;-81
2023/04/28 04:52:14;;;;;;;19.83;11.38;;;;;;;9.56;94.27;100846.09;5079175;28;20031;-81
2023/04/28 04:54:40;;;;;;;19.43;11.37;;;;;;;9.58;94.34;100847.56;5079028;28;20039;-81
2023/04/28 04:57:05;;;;;;;17.80;11.07;;;;;;;9.60;93.85;100850.88;5062295;28;20483;-81
2023/04/28 04:59:31;;;;;;;17.63;10.68;;;;;;;9.63;93.82;100846.94;5113977;28;20472;-81
2023/04/28 05:01:57;;;;;;;18.58;10.75;;;;;;;9.68;93.88;100841.72;5096172;28;20032;-81
2023/04/28 05:04:22;;;;;;;16.70;11.17;;;;;;;9.74;94.90;100851.72;5096304;28;20032;-81
2023/04/28 05:06:47;;;;;;;18.70;11.23;;;;;;;9.80;93.92;100847.31;5095828;28;20034;-81
2023/04/28 05:09:13;;;;;;;18.23;11.43;;;;;;;9.87;94.37;100845.44;5095738;28;20212;-81
2023/04/28 05:11:38;;;;;;;19.47;10.90;;;;;;;9.96;93.77;100835.22;5095894;28;20057;-81
2023/04/28 05:14:03;;;;;;;17.87;11.00;;;;;;;10.02;93.76;100839.78;5095942;28;20040;-82
2023/04/28 05:16:29;;;;;;;19.83;11.13;;;;;;;10.06;93.85;100837.50;5095143;28;20086;-81
2023/04/28 05:18:54;;;;;;;18.63;10.80;;;;;;;10.08;93.28;100844.34;5113874;28;20047;-81
2023/04/28 05:21:20;;;;;;;18.37;11.40;;;;;;;10.13;93.66;100841.03;5078816;28;20062;-81
2023/04/28 05:23:45;;;;;;;17.50;10.57;;;;;;;10.23;93.60;100844.13;5117863;28;20479;-81
2023/04/28 05:26:11;;;;;;;16.17;10.77;;;;;;;10.26;93.24;100848.28;5099561;28;20277;-81
2023/04/28 05:28:38;;;;;;;18.97;11.27;;;;;;;10.27;92.91;100845.34;5099499;28;20353;-81
2023/04/28 05:31:03;;;;;;;17.15;10.23;;;;;;;10.26;92.64;100854.56;5117759;28;20067;-81
2023/04/28 05:33:29;;;;;;;17.73;10.83;;;;;;;10.29;92.63;100854.13;5082891;28;20114;-81
2023/04/28 05:35:54;;;;;;;17.90;10.83;;;;;;;10.30;93.10;100853.06;5065995;28;20502;-81
2023/04/28 05:38:20;;;;;;;18.63;11.00;;;;;;;10.30;93.01;100850.34;5082582;28;20038;-81
2023/04/28 05:40:45;;;;;;;20.23;10.30;;;;;;;10.32;94.08;100840.13;5083057;28;20035;-81
2023/04/28 05:43:11;;;;;;;17.87;11.67;;;;;;;10.37;93.12;100835.97;5117403;28;20083;-81
2023/04/28 05:45:36;;;;;;;19.63;11.90;;;;;;;10.46;93.86;100846.34;5099593;28;20380;-81
2023/04/28 05:48:03;;;;;;;17.13;10.33;;;;;;;10.57;92.92;100849.44;5098933;28;20429;-83
2023/04/28 05:50:29;;;;;;;19.08;10.77;;;;;;;10.70;92.56;100850.25;5099900;28;20024;-81
2023/04/28 05:52:54;;;;;;;21.23;10.73;;;;;;;10.87;91.54;100849.72;5099477;28;20349;-82
2023/04/28 05:55:20;;;;;;;16.15;10.90;;;;;;;10.93;92.01;100838.00;5098982;28;20096;-81
2023/04/28 05:57:46;;;;;;;15.37;10.67;;;;;;;11.01;91.22;100843.19;5081949;28;20106;-82
2023/04/28 06:00:12;;;;;;;18.77;10.82;;;;;;;11.09;91.46;100835.78;5099316;28;20063;-82
2023/04/28 06:02:37;;;;;;;19.47;11.00;;;;;;;11.14;91.29;100834.09;5099327;28;20038;-81
2023/04/28 06:05:03;;;;;;;21.50;10.60;;;;;;;11.19;90.99;100833.44;5065608;28;20039;-81
2023/04/28 06:07:28;;;;;;;20.13;11.50;;;;;;;11.21;91.45;100834.06;5099042;28;20028;-81
2023/04/28 06:09:54;;;;;;;18.47;10.20;;;;;;;11.27;91.87;100833.19;5098603;28;20031;-85
2023/04/28 06:12:19;;;;;;;17.30;11.05;;;;;;;11.41;91.38;100837.47;5098589;28;20034;-81
2023/04/28 06:14:45;;;;;;;16.93;10.80;;;;;;;11.55;90.57;100832.75;5064981;28;20484;-81
2023/04/28 06:17:10;;;;;;;17.00;10.03;;;;;;;11.59;91.22;100828.53;5064732;28;20134;-81
2023/04/28 06:19:36;;;;;;;19.40;10.23;;;;;;;11.57;92.63;100833.38;5098607;28;20123;-81
2023/04/28 06:22:01;;;;;;;18.75;10.20;;;;;;;11.61;93.16;100832.91;5081871;28;20062;-82
2023/04/28 06:24:26;;;;;;;19.30;10.50;;;;;;;11.74;92.95;100830.91;5081615;28;20468;-81
2023/04/28 06:26:53;;;;;;;19.43;9.93;;;;;;;11.90;92.04;100828.69;5081915;28;20038;-81
2023/04/28 06:29:19;;;;;;;16.48;9.60;;;;;;;11.87;92.81;100832.66;5098118;28;20024;-82
2023/04/28 06:31:45;;;;;;;14.88;10.25;;;;;;;11.81;95.19;100836.28;5116463;28;20071;-81
2023/04/28 06:34:10;;;;;;;12.70;9.30;;;;;;;11.84;96.07;100834.97;5116360;28;20126;-81
2023/04/28 06:36:35;;;;;;;14.73;9.93;;;;;;;11.87;96.45;100831.81;5082096;28;20418;-81
2023/04/28 06:39:01;;;;;;;16.50;10.43;;;;;;;11.97;97.24;100831.34;5116425;28;20032;-82
2023/04/28 06:41:28;;;;;;;16.23;9.63;;;;;;;11.95;96.71;100836.19;5098567;28;20136;-81
2023/04/28 06:43:53;;;;;;;15.73;10.00;;;;;;;11.84;97.41;100834.97;5082124;28;20032;-81
2023/04/28 06:46:19;;;;;;;13.43;9.30;;;;;;;11.76;99.43;100833.38;5116441;28;20100;-83
2023/04/28 06:48:45;;;;;;;18.08;10.02;;;;;;;11.75;100.00;100832.56;5081305;28;20035;-82
2023/04/28 06:51:10;;;;;;;15.07;9.20;;;;;;;11.74;100.00;100820.03;5064271;28;20076;-82
2023/04/28 06:53:36;;;;;;;16.93;9.57;;;;;;;11.80;100.00;100815.59;5064301;28;20039;-82
2023/04/28 06:56:01;;;;;;;18.58;9.02;;;;;;;11.84;100.00;100824.97;5081365;28;20024;-82
2023/04/28 06:58:27;;;;;;;18.33;10.30;;;;;;;11.76;100.00;100822.53;5081128;28;20032;-83
2023/04/28 07:00:52;;;;;;;16.75;9.32;;;;;;;11.65;100.00;100824.09;5081093;28;20487;-83
2023/04/28 07:03:18;;;;;;;15.30;9.40;;;;;;;11.62;100.00;100821.81;5064904;28;20340;-82
2023/04/28 07:05:43;;;;;;;13.67;9.60;;;;;;;11.67;100.00;100811.09;5080802;28;20046;-82
2023/04/28 07:08:09;;;;;;;15.13;9.97;;;;;;;11.84;100.00;100821.38;5115522;28;20042;-82
2023/04/28 07:10:34;;;;;;;15.40;9.23;;;;;;;12.01;100.00;100819.78;5097701;28;20031;-83
2023/04/28 07:13:00;;;;;;;14.90;9.70;;;;;;;12.15;100.00;100819.63;5097841;28;20507;-83
2023/04/28 07:15:26;;;;;;;17.33;9.43;;;;;;;12.31;100.00;100810.03;5096911;28;20181;-82
2023/04/28 07:17:51;;;;;;;14.88;9.10;;;;;;;12.54;100.00;100806.63;5097220;28;20039;-82
2023/04/28 07:20:16;;;;;;;14.70;8.93;;;;;;;12.70;100.00;100810.59;5116189;28;20108;-83
2023/04/28 07:22:42;;;;;;;11.93;8.60;;;;;;;12.80;100.00;100805.44;5080484;28;20468;-83
2023/04/28 07:25:08;;;;;;;13.60;8.93;;;;;;;12.92;100.00;100811.75;5063641;28;20027;-83
2023/04/28 07:27:33;;;;;;;13.52;9.02;;;;;;;12.80;100.00;100808.97;5115409;28;20034;-83
2023/04/28 07:29:59;;;;;;;14.20;8.63;;;;;;;12.78;100.00;100824.72;5097147;28;20032;-83
2023/04/28 07:32:24;;;;;;;13.23;8.95;;;;;;;12.79;100.00;100814.66;5080214;28;20122;-83
2023/04/28 07:34:50;;;;;;;16.90;8.50;;;;;;;12.64;100.00;100821.34;5097358;28;20036;-82
2023/04/28 07:37:16;;;;;;;15.23;8.47;;;;;;;12.58;100.00;100824.97;5096642;28;20479;-82
2023/04/28 07:39:41;;;;;;;13.48;8.85;;;;;;;12.58;100.00;100833.16;5115312;28;20161;-83
2023/04/28 07:42:07;;;;;;;12.37;8.37;;;;;;;12.59;100.00;100832.09;5097410;28;20028;-82
2023/04/28 07:44:33;;;;;;;14.85;9.52;;;;;;;12.60;100.00;100836.47;5096705;28;20475;-83
2023/04/28 07:46:59;;;;;;;13.13;9.20;;;;;;;12.49;100.00;100831.81;5114979;28;20062;-83
2023/04/28 07:49:27;;;;;;;18.70;9.50;;;;;;;12.25;100.00;100834.38;5079920;28;20023;-83
2023/04/28 07:51:54;;;;;;;12.68;10.05;;;;;;;12.07;100.00;100839.81;5096575;28;20020;-83
2023/04/28 07:54:20;;;;;;;16.23;10.80;;;;;;;12.04;100.00;100835.66;5079721;28;20035;-83
2023/04/28 07:56:45;;;;;;;16.03;10.07;;;;;;;12.03;100.00;100827.72;5114579;28;20027;-83
2023/04/28 07:59:11;;;;;;;14.73;10.45;;;;;;;11.90;100.00;100825.97;5079876;28;20034;-83
2023/04/28 08:01:36;;;;;;;15.70;11.03;;;;;;;11.81;100.00;100839.00;5079514;28;20031;-83
2023/04/28 08:04:02;;;;;;;18.17;11.60;;;;;;;11.78;100.00;100828.59;5062963;28;20487;-83
2023/04/28 08:06:27;;;;;;;14.88;11.02;;;;;;;11.75;100.00;100838.00;5079589;28;20020;-83
2023/04/28 08:08:54;;;;;;;21.03;12.53;;;;;;;11.68;100.00;100837.22;5080389;28;20038;-82
2023/04/28 08:11:21;;;;;;;17.85;12.60;;;;;;;11.65;100.00;100840.41;5114513;28;20035;-83
2023/04/28 08:13:46;;;;;;;21.55;12.82;;;;;;;11.65;100.00;100834.97;5096277;28;20023;-82
2023/04/28 08:16:12;;;;;;;19.30;13.50;;;;;;;11.60;100.00;100829.34;5079077;28;20056;-83
2023/04/28 08:18:38;;;;;;;19.67;13.17;;;;;;;11.66;100.00;100828.47;5096201;28;20035;-83
2023/04/28 08:21:04;;;;;;;19.60;13.13;;;;;;;11.68;100.00;100831.78;5096524;28;20034;-83
2023/04/28 08:23:30;;;;;;;19.37;13.50;;;;;;;11.65;100.00;100832.25;5079636;28;20031;-83
2023/04/28 08:25:56;;;;;;;20.17;14.38;;;;;;;11.69;100.00;100832.63;5079703;28;20528;-82
2023/04/28 08:28:21;;;;;;;24.10;14.50;;;;;;;11.73;100.00;100839.28;5079423;28;20027;-82
2023/04/28 08:30:47;;;;;;;19.48;13.85;;;;;;;11.72;100.00;100838.44;5079080;28;20036;-82
2023/04/28 08:33:12;;;;;;;17.77;13.37;;;;;;;11.70;100.00;100832.38;5079254;28;20420;-83
2023/04/28 08:35:38;;;;;;;23.53;15.37;;;;;;;11.77;100.00;100832.34;5079313;28;20059;-83
2023/04/28 08:38:03;;;;;;;20.03;13.87;;;;;;;11.97;100.00;100836.78;5079294;28;20089;-83
2023/04/28 08:40:32;;;;;;;22.70;14.73;;;;;;;12.19;100.00;100837.16;5114121;28;20028;-83
2023/04/28 08:42:59;;;;;;;20.02;14.38;;;;;;;12.32;100.00;100837.00;5095708;28;20440;-83
2023/04/28 08:45:24;;;;;;;20.90;13.93;;;;;;;12.31;100.00;100842.69;5095779;28;20383;-82
2023/04/28 08:47:51;;;;;;;22.55;13.40;;;;;;;12.25;100.00;100838.97;5095632;28;20024;-83
2023/04/28 08:50:22;;;;;;;22.30;13.90;;;;;;;12.33;100.00;100835.97;5096561;28;20028;-82
2023/04/28 08:52:47;;;;;;;19.73;14.60;;;;;;;12.54;100.00;100837.38;5114165;28;20047;-82
2023/04/28 08:55:13;;;;;;;19.52;14.05;;;;;;;12.75;100.00;100838.78;5079183;28;20472;-82
2023/04/28 08:57:50;;;;;;;18.93;14.00;;;;;;;12.74;100.00;100841.72;5116346;28;20030;-82
2023/04/28 09:00:16;;;;;;;20.08;13.55;;;;;;;12.77;100.00;100849.44;5100281;28;20036;-82
2023/04/28 09:02:41;;;;;;;16.57;13.17;;;;;;;12.76;100.00;100848.59;5099895;28;20043;-82
2023/04/28 09:05:07;;;;;;;19.67;14.30;;;;;;;12.73;100.00;100846.34;5066259;28;20031;-83
2023/04/28 09:07:33;;;;;;;21.33;14.63;;;;;;;12.79;100.00;100848.16;5118051;28;20034;-82
2023/04/28 09:10:22;;;;;;;21.70;13.77;;;;;;;12.82;100.00;100835.97;5099912;28;20472;-82
2023/04/28 09:12:51;;;;;;;22.05;14.65;;;;;;;12.73;100.00;100842.81;5099695;28;20030;-82
2023/04/28 09:15:31;;;;;;;21.60;14.93;;;;;;;12.80;100.00;100846.28;5099621;28;20032;-83
2023/04/28 09:17:57;;;;;;;20.33;14.00;;;;;;;12.76;100.00;100839.63;5099678;28;20067;-83
2023/04/28 09:20:25;;;;;;;21.80;14.95;;;;;;;12.70;100.00;100840.53;5099446;28;20043;-83
2023/04/28 09:22:52;;;;;;;24.20;15.55;;;;;;;12.72;100.00;100846.56;5099347;28;20122;-82
2023/04/28 09:25:18;;;;;;;24.92;15.90;;;;;;;12.76;100.00;100839.63;5117853;28;20032;-82
2023/04/28 09:27:43;;;;;;;23.35;14.43;;;;;;;12.89;100.00;100841.31;5099893;28;20028;-82
2023/04/28 09:30:09;;;;;;;24.23;16.27;;;;;;;12.99;100.00;100833.41;5117782;28;20168;-82
2023/04/28 09:32:35;;;;;;;26.10;15.82;;;;;;;13.16;100.00;100839.88;5082761;28;20573;-82
2023/04/28 09:35:01;;;;;;;22.43;15.13;;;;;;;13.30;100.00;100837.78;5098895;28;20027;-82
2023/04/28 09:37:29;;;;;;;21.05;14.70;;;;;;;13.33;100.00;100840.03;5082320;28;20030;-82
2023/04/28 09:39:56;;;;;;;24.40;16.08;;;;;;;13.37;100.00;100839.59;5098953;28;20039;-83
2023/04/28 09:42:33;;;;;;;22.23;15.23;;;;;;;13.26;100.00;100847.47;5099039;28;20028;-82
2023/04/28 09:45:01;;;;;;;23.27;15.73;;;;;;;13.10;100.00;100843.53;5117048;28;20030;-82
2023/04/28 09:47:27;;;;;;;23.23;16.08;;;;;;;12.97;100.00;100854.63;5099497;28;20020;-82
2023/04/28 09:49:57;;;;;;;25.90;17.63;;;;;;;12.90;100.00;100854.72;5081867;28;20542;-82
2023/04/28 09:52:23;;;;;;;24.58;17.23;;;;;;;12.86;100.00;100855.38;5098836;28;20032;-83
2023/04/28 09:55:00;;;;;;;27.27;18.65;;;;;;;12.77;100.00;100853.00;5098526;28;20055;-81
2023/04/28 09:57:38;;;;;;;30.95;20.38;;;;;;;12.75;100.00;100852.38;5098964;28;20034;-81
2023/04/28 10:03:27;;;;;;;44.10;26.53;;;;;;;12.64;100.00;100856.72;5116998;28;20057;-82
2023/04/28 10:06:04;;;;;;;49.90;28.13;;;;;;;12.69;100.00;100857.94;5098495;28;20074;-82
2023/04/28 10:08:31;;;;;;;57.80;31.83;;;;;;;12.75;100.00;100857.81;5098887;28;20470;-82
2023/04/28 10:11:00;;;;;;;53.22;30.98;;;;;;;12.84;100.00;100849.34;5098033;28;20023;-82
2023/04/28 10:13:25;;;;;;;51.55;29.75;;;;;;;12.98;100.00;100850.84;5116804;28;20024;-82
2023/04/28 10:15:54;;;;;;;56.73;31.07;;;;;;;13.15;100.00;100846.41;5116577;28;20058;-82
2023/04/28 10:18:22;;;;;;;50.92;31.20;;;;;;;13.25;100.00;100853.97;5099575;28;20031;-82
2023/04/28 10:20:59;;;;;;;56.33;30.60;;;;;;;13.35;100.00;100845.28;5098156;28;20157;-82
2023/04/28 10:23:37;;;;;;;49.72;29.60;;;;;;;13.45;100.00;100844.69;5116368;28;20123;-82
2023/04/28 10:26:09;;;;;;;47.13;27.48;;;;;;;13.53;100.00;100841.63;5098894;28;20040;-82
2023/04/28 10:28:35;;;;;;;47.38;28.08;;;;;;;13.59;100.00;100845.31;5082055;28;20032;-82
2023/04/28 10:31:20;;;;;;;43.93;28.97;;;;;;;13.59;100.00;100848.88;5117094;28;20036;-82
2023/04/28 10:33:46;;;;;;;43.45;27.23;;;;;;;13.60;100.00;100853.25;5116784;28;20027;-82
2023/04/28 10:36:51;;;;;;;37.45;26.13;;;;;;;13.59;100.00;100839.88;5081491;28;20485;-82
2023/04/28 10:39:17;;;;;;;42.03;27.52;;;;;;;13.70;100.00;100844.50;5097733;28;20031;-82
2023/04/28 10:41:45;;;;;;;40.17;26.67;;;;;;;13.92;100.00;100841.16;5097094;28;20045;-82
2023/04/28 10:44:29;;;;;;;35.67;25.50;;;;;;;14.11;100.00;100842.69;5097915;28;20032;-82
2023/04/28 10:47:08;;;;;;;33.85;24.25;;;;;;;14.29;100.00;100843.63;5116095;28;20111;-82
2023/04/28 10:49:56;;;;;;;33.70;24.42;;;;;;;14.53;100.00;100831.56;5116195;28;20528;-82
2023/04/28 10:52:47;;;;;;;29.52;22.38;;;;;;;14.78;100.00;100835.06;5097772;28;20031;-82
2023/04/28 10:55:27;;;;;;;31.45;22.25;;;;;;;14.82;100.00;100837.09;5097719;28;20467;-82
2023/04/28 10:58:14;;;;;;;25.77;20.53;;;;;;;14.86;100.00;100830.06;5116045;28;20085;-82
2023/04/28 11:00:41;;;;;;;26.50;20.08;;;;;;;14.90;100.00;100825.75;5115588;28;20031;-82
2023/04/28 11:03:07;;;;;;;22.95;18.35;;;;;;;15.05;100.00;100827.94;5097254;28;20446;-82
2023/04/28 11:05:35;;;;;;;23.00;18.80;;;;;;;15.23;100.00;100818.69;5097333;28;20114;-82
2023/04/28 11:08:30;;;;;;;21.20;18.20;;;;;;;15.29;100.00;100821.53;5116128;28;20133;-82
2023/04/28 11:11:15;;;;;;;21.83;18.00;;;;;;;15.32;100.00;100816.38;5115600;28;20026;-82
2023/04/28 11:13:42;;;;;;;20.52;17.52;;;;;;;15.35;100.00;100815.06;5097361;28;20024;-82